Aérodrome :
LOGIN :

S'inscrire | Disclaimer

   EN    FR    IT 

 










Légende :    VFR   VFR Marginal   IFR   IFR Intensif   IFR Très Intensif
Visi : 
Plafond : 
>= 8 km
>= 3000ft
5 à 8 km
1000 à 3000 ft
1500m à 5 km
500 à 1000 ft
800 à 1500m
200 à 500 ft
< 800m
< 200 ft
Symboles :   Orages  Brouillard  Fortes neiges  Fortes précipitations  Vent > 20 kt
SIGMETs :   Divers  Orages  Givrage  Turbulence  Onde Orograph.  Cendres Volcan.







- Altitude de l'aérodrome : 580 ft
- Voir les cartes d'approche


LFOA - Avord

DERNIER METAR :
  • 221930Z AUTO 21003KT CAVOK 20/10 Q1015

METARs EXPIRÉS :
  • 221900Z AUTO 22003KT CAVOK 20/11 Q1015
  • 221830Z AUTO 22004KT CAVOK 21/11 Q1014
  • 221800Z AUTO 23005KT CAVOK 22/12 Q1014
  • 221730Z AUTO 23006KT CAVOK 24/11 Q1014
  • 221700Z AUTO 23007KT CAVOK 24/10 Q1014

TAF AMD TAF LFOA
Valide du 22 à 09h jusqu'au 23 à 09h UTC


220940Z 2209/2309 21008KT CAVOK
TEMPO 2306/2309 4000 -SHRA BKN050TCU
Pas de NOTAMs connus pour ce terrain.
1 SIGMET publié pour la FIR Paris (LFFF) :
 
Orages noyés dans la masse
LFFF SIGMET 4 VALID 221900/222100 LFPW
LFFF PARIS FIR/UIR EMBD TS FCST WI N5015 E00300 - N4915 E00315 - N4845 E00215 - N5000 E00145 - N5015 E00300 TOP FL320 MOV NE 20KT NC=



MET'MAP, la Météo Aéronautique d'un coup d'oeil ! - Copyright ORBIFLY Décembre 2007 - Disclaimer

ORBIFLY MET'MAP TEAM :

Programmation & Développement : Alexandra Zaïnal
Conception & Développement : Baudouin d'Aumeries
Co-Programmation & Développement : Marc-Olivier Méhu
Soutien technique & logistique : Manuel Goepfert

Contact : metmap@orbifly.com




SOURCES & CREDITS :

   NOAA